Time;durP1;ratioP1;P1;durP2;ratioP2;P2;SDS_P1;SDS_P2;PMS_P1;PMS_P2;Temp;Humidity;BMP_temperature;BMP_pressure;BME280_temperature;BME280_humidity;BME280_pressure;Samples;Min_cycle;Max_cycle;Signal;HPM_P1;HPM_P2
2022/11/08 07:06:23;;;;;;;;;4.00;4.00;;;;;12.39;64.92;100563.28;2958244;22;44830;31
2022/11/08 07:07:33;;;;;;;;;4.50;4.50;;;;;12.41;65.11;100571.97;3026093;22;46334;-85
2022/11/08 07:08:44;;;;;;;;;7.25;4.50;;;;;12.41;65.05;100571.97;3029238;22;45087;-85
2022/11/08 07:09:54;;;;;;;;;3.75;3.75;;;;;12.42;64.85;100575.47;3012817;22;47166;-86
2022/11/08 07:11:05;;;;;;;;;2.50;2.50;;;;;12.41;64.67;100568.47;3017118;22;45157;-85
2022/11/08 07:12:15;;;;;;;;;5.50;5.25;;;;;12.43;64.89;100579.81;3026519;22;45685;-86
2022/11/08 07:13:25;;;;;;;;;6.00;4.00;;;;;12.44;64.77;100578.88;3029162;22;45079;-87
2022/11/08 07:14:36;;;;;;;;;3.00;3.00;;;;;12.45;64.70;100576.19;3028573;22;46391;-87
2022/11/08 07:15:46;;;;;;;;;5.50;4.00;;;;;12.48;64.79;100575.19;3011758;22;45258;-86
2022/11/08 07:16:57;;;;;;;;;5.00;3.75;;;;;12.50;64.73;100568.06;3002120;22;47036;-86
2022/11/08 07:18:12;;;;;;;;;2.75;2.75;;;;;12.49;65.15;100571.63;3001088;22;45158;-86
2022/11/08 07:19:23;;;;;;;;;3.00;3.00;;;;;12.49;65.03;100567.19;3018053;22;46810;-86
2022/11/08 07:20:34;;;;;;;;;3.00;3.00;;;;;12.51;65.02;100577.69;3028562;22;45360;-87
2022/11/08 07:21:44;;;;;;;;;3.50;3.00;;;;;12.51;64.38;100582.97;3011375;22;48481;-87
2022/11/08 07:22:55;;;;;;;;;4.00;3.25;;;;;12.52;64.63;100584.66;3001915;22;44681;-87
2022/11/08 07:24:06;;;;;;;;;2.75;2.00;;;;;12.53;64.79;100578.47;3016446;22;47971;-89
2022/11/08 07:25:16;;;;;;;;;4.00;4.00;;;;;12.55;64.51;100594.22;3010825;22;45273;-87
2022/11/08 07:26:27;;;;;;;;;9.25;4.25;;;;;12.55;64.98;100588.94;3010088;22;48033;-87
2022/11/08 07:27:37;;;;;;;;;3.25;2.75;;;;;12.56;64.98;100581.00;3012475;22;45193;-87
2022/11/08 07:28:48;;;;;;;;;2.25;2.25;;;;;12.57;64.82;100580.06;3016802;22;46098;-87
2022/11/08 07:29:59;;;;;;;;;2.00;0.75;;;;;12.58;64.52;100592.31;3011961;22;44735;-87
2022/11/08 07:31:09;;;;;;;;;4.50;3.50;;;;;12.59;64.79;100570.28;3012268;22;45283;-87
2022/11/08 07:32:20;;;;;;;;;3.00;3.00;;;;;12.60;64.44;100576.44;3027209;22;45378;-87
2022/11/08 07:33:30;;;;;;;;;5.25;3.50;;;;;12.63;64.65;100575.44;3009703;22;46839;-87
2022/11/08 07:34:41;;;;;;;;;5.75;3.25;;;;;12.64;64.59;100574.53;3010999;22;44665;-86
2022/11/08 07:35:51;;;;;;;;;5.75;3.25;;;;;12.64;64.46;100574.53;3015586;22;45307;-86
2022/11/08 07:37:01;;;;;;;;;4.00;3.50;;;;;12.63;64.59;100571.03;3027040;22;45525;-87
2022/11/08 07:38:12;;;;;;;;;3.50;3.50;;;;;12.64;64.69;100579.78;3009450;22;49759;-87
2022/11/08 07:39:22;;;;;;;;;4.50;3.75;;;;;12.65;64.54;100592.03;3015122;22;45275;-87
2022/11/08 07:40:34;;;;;;;;;3.00;3.00;;;;;12.65;64.70;100592.91;3009535;22;46914;-87
2022/11/08 07:41:44;;;;;;;;;4.00;3.75;;;;;12.66;64.75;100594.63;3009757;22;45551;-87
2022/11/08 07:42:58;;;;;;;;;4.75;4.00;;;;;12.68;64.97;100597.19;3014695;22;46032;-87
2022/11/08 07:44:08;;;;;;;;;8.50;4.00;;;;;12.69;64.58;100599.75;3027242;22;44637;-86
2022/11/08 07:45:18;;;;;;;;;6.75;3.00;;;;;12.67;64.66;100596.31;3011398;22;47001;-86
2022/11/08 07:46:29;;;;;;;;;5.50;4.00;;;;;12.69;64.59;100593.63;3011190;22;45287;-86
2022/11/08 07:47:39;;;;;;;;;4.00;4.00;;;;;12.69;64.17;100591.84;3016797;22;45267;-87
2022/11/08 07:48:49;;;;;;;;;4.00;3.75;;;;;12.69;64.45;100591.00;3012295;22;45349;-87
2022/11/08 07:50:00;;;;;;;;;4.25;3.75;;;;;12.71;64.29;100599.69;3011310;22;47856;-88
2022/11/08 07:51:10;;;;;;;;;3.00;3.00;;;;;12.73;64.54;100594.34;3014964;22;45305;-88
2022/11/08 07:52:20;;;;;;;;;4.00;4.00;;;;;12.76;64.63;100595.06;3026299;22;46451;-87
2022/11/08 07:53:31;;;;;;;;;3.75;3.00;;;;;12.79;64.65;100597.56;3010353;22;45267;-87
2022/11/08 07:54:41;;;;;;;;;3.25;3.25;;;;;12.81;64.15;100603.63;3015031;22;46371;-87
2022/11/08 07:55:52;;;;;;;;;3.75;3.75;;;;;12.87;64.35;100593.72;3009999;22;45217;-87
2022/11/08 07:57:03;;;;;;;;;3.75;3.50;;;;;12.90;64.59;100590.94;3009181;22;46957;-86
2022/11/08 07:58:14;;;;;;;;;4.00;2.75;;;;;12.94;64.17;100595.16;3014689;22;45223;-87
2022/11/08 07:59:25;;;;;;;;;3.75;3.75;;;;;12.96;64.36;100595.97;3026649;22;46003;-88
2022/11/08 08:00:38;;;;;;;;;4.25;3.00;;;;;13.01;64.61;100598.38;3008472;22;45470;-88
2022/11/08 08:01:48;;;;;;;;;4.25;2.75;;;;;13.04;64.37;100596.44;3014587;22;45374;-88
2022/11/08 08:02:59;;;;;;;;;3.25;3.25;;;;;13.07;64.41;100590.19;3011903;22;44654;-87
2022/11/08 08:04:11;;;;;;;;;3.00;2.50;;;;;13.11;63.94;100594.38;3016764;22;45465;-88
2022/11/08 08:05:21;;;;;;;;;2.50;2.50;;;;;13.14;64.18;100585.47;3010680;22;44721;-86
2022/11/08 08:06:31;;;;;;;;;4.00;3.00;;;;;13.18;63.75;100592.34;3020617;22;46866;-88
2022/11/08 08:07:42;;;;;;;;;3.00;3.00;;;;;13.21;63.91;100599.25;3027507;22;45226;-88
2022/11/08 08:08:52;;;;;;;;;3.00;3.00;;;;;13.23;63.89;100595.63;3026454;22;45375;-88
2022/11/08 08:10:02;;;;;;;;;3.00;3.00;;;;;13.25;64.11;100585.84;3027259;22;45265;-87
2022/11/08 08:11:14;;;;;;;;;5.75;3.00;;;;;13.30;63.85;100590.03;3026491;22;45380;-87
2022/11/08 08:12:24;;;;;;;;;5.25;3.00;;;;;13.33;64.18;100590.75;3026421;22;44720;-87
2022/11/08 08:13:34;;;;;;;;;2.25;2.25;;;;;13.36;63.81;100582.69;3024977;22;45711;-87
2022/11/08 08:14:44;;;;;;;;;3.00;2.00;;;;;13.39;63.95;100589.59;3024377;22;45712;-89
2022/11/08 08:15:59;;;;;;;;;3.00;3.00;;;;;13.42;63.49;100592.09;3025814;22;46242;-89
2022/11/08 08:17:09;;;;;;;;;1.75;1.75;;;;;13.47;63.50;100581.31;3026119;22;45687;-87
2022/11/08 08:18:20;;;;;;;;;3.00;3.00;;;;;13.49;63.72;100582.97;3024215;22;46917;-87
2022/11/08 08:19:30;;;;;;;;;5.75;4.00;;;;;13.53;63.00;100580.19;3028797;22;45337;-88
2022/11/08 08:20:41;;;;;;;;;5.25;3.00;;;;;13.55;63.23;100575.66;3024312;22;47941;-87
2022/11/08 08:21:51;;;;;;;;;2.50;2.50;;;;;13.54;62.96;100564.25;3024560;22;45310;-88
2022/11/08 08:23:01;;;;;;;;;4.00;2.25;;;;;13.57;63.49;100584.41;3025683;22;48496;-89
2022/11/08 08:24:12;;;;;;;;;2.00;2.00;;;;;13.60;63.50;100589.53;3015410;22;45275;-87
2022/11/08 08:25:22;;;;;;;;;6.00;3.50;;;;;13.65;63.46;100594.59;3024826;22;45760;-88
2022/11/08 08:26:33;;;;;;;;;3.75;3.00;;;;;13.68;62.85;100579.44;3026613;22;45218;-88
2022/11/08 08:27:48;;;;;;;;;2.75;2.25;;;;;13.71;63.41;100581.94;3024827;22;46945;-87
2022/11/08 08:28:58;;;;;;;;;3.25;3.25;;;;;13.73;63.81;100574.78;3024529;22;44703;-87
2022/11/08 08:30:08;;;;;;;;;4.50;2.25;;;;;13.77;63.45;100577.28;3023825;22;46665;-89
2022/11/08 08:31:19;;;;;;;;;3.00;3.00;;;;;13.82;63.35;100585.84;3027998;22;45151;-88
2022/11/08 08:32:29;;;;;;;;;2.25;2.25;;;;;13.84;63.00;100578.69;3025636;22;47940;-87
2022/11/08 08:33:40;;;;;;;;;2.75;2.50;;;;;13.88;62.93;100582.06;3027029;22;45291;-88
2022/11/08 08:34:50;;;;;;;;;1.25;1.00;;;;;13.90;62.74;100569.63;3027308;22;46278;-88
2022/11/08 08:36:00;;;;;;;;;4.00;3.00;;;;;13.91;63.24;100563.38;3027755;22;45326;-88
2022/11/08 08:37:14;;;;;;;;;4.00;3.25;;;;;13.94;63.21;100563.25;3028352;22;45306;-90
2022/11/08 08:38:24;;;;;;;;;3.50;3.00;;;;;13.96;62.79;100564.03;3026965;22;44690;-89
2022/11/08 08:39:34;;;;;;;;;2.75;2.00;;;;;13.99;62.84;100566.53;3025968;22;47934;-88
2022/11/08 08:40:45;;;;;;;;;4.75;2.75;;;;;14.02;63.11;100565.50;3025694;22;45630;-89
2022/11/08 08:41:55;;;;;;;;;2.50;2.00;;;;;14.05;63.21;100573.28;3029911;22;48073;-89
2022/11/08 08:43:06;;;;;;;;;3.00;3.00;;;;;14.10;62.66;100579.16;3037820;22;45318;-88
2022/11/08 08:44:16;;;;;;;;;2.75;2.75;;;;;14.11;62.83;100572.97;3027533;22;45268;-89
2022/11/08 08:45:27;;;;;;;;;3.75;3.00;;;;;14.15;62.81;100574.50;3028423;22;45215;-89
2022/11/08 08:46:37;;;;;;;;;2.50;2.50;;;;;14.17;63.33;100579.75;3026077;22;46956;-89
2022/11/08 08:47:53;;;;;;;;;3.00;3.00;;;;;14.17;61.98;100577.94;3027964;22;44613;-89
2022/11/08 08:49:03;;;;;;;;;3.25;2.75;;;;;14.18;62.57;100577.00;3027335;22;46387;-89
2022/11/08 08:50:14;;;;;;;;;2.25;2.25;;;;;14.20;63.02;100578.72;3026102;22;45295;-91
2022/11/08 08:51:24;;;;;;;;;3.00;3.00;;;;;14.22;62.48;100579.50;3026174;22;47998;-90
2022/11/08 08:52:34;;;;;;;;;3.00;2.25;;;;;14.24;63.27;100578.50;3027765;22;45337;-91
2022/11/08 08:53:45;;;;;;;;;2.75;2.75;;;;;14.25;62.90;100571.38;3026550;22;47185;-91
2022/11/08 08:54:55;;;;;;;;;2.50;1.75;;;;;14.26;63.17;100578.41;3027961;22;45289;-90
2022/11/08 08:56:06;;;;;;;;;4.00;2.25;;;;;14.29;62.94;100580.91;3027443;22;46446;-89
2022/11/08 08:57:17;;;;;;;;;3.00;2.00;;;;;14.29;63.04;100570.31;3026240;22;45143;-88
2022/11/08 08:58:27;;;;;;;;;2.50;2.50;;;;;14.35;62.82;100577.06;3026343;22;47404;-87
2022/11/08 08:59:37;;;;;;;;;2.00;2.00;;;;;14.35;62.85;100570.00;3027721;22;45295;-88
2022/11/08 09:00:48;;;;;;;;;3.25;3.00;;;;;14.38;62.79;100575.13;3026556;22;46244;-88
2022/11/08 09:01:59;;;;;;;;;0.00;0.00;;;;;14.39;62.78;100578.63;3027235;22;45299;-87
2022/11/08 09:03:10;;;;;;;;;2.25;2.25;;;;;14.43;63.34;100595.19;3027239;22;45510;-88
2022/11/08 09:04:20;;;;;;;;;4.00;3.00;;;;;14.45;63.10;100588.88;3026694;22;45437;-89
2022/11/08 09:05:32;;;;;;;;;4.00;2.75;;;;;14.46;62.74;100582.66;3026865;22;45422;-89
2022/11/08 09:06:42;;;;;;;;;5.00;3.00;;;;;14.50;62.97;100580.69;2993183;22;45283;-88
2022/11/08 09:07:54;;;;;;;;;3.50;2.00;;;;;14.54;63.02;100578.75;2966379;23;46104;-89
2022/11/08 09:09:05;;;;;;;;;2.25;2.25;;;;;14.58;62.60;100585.59;3020426;22;45363;-89
2022/11/08 09:10:15;;;;;;;;;2.00;2.00;;;;;14.60;62.86;100579.28;2952397;23;45935;-88
2022/11/08 09:11:25;;;;;;;;;3.00;3.00;;;;;14.62;62.67;100585.34;2962818;23;45281;-87
2022/11/08 09:12:37;;;;;;;;;4.50;3.00;;;;;14.66;62.75;100579.91;3025093;22;46830;-91
2022/11/08 09:13:47;;;;;;;;;4.00;4.00;;;;;14.69;63.10;100582.41;3015574;22;44637;-88
2022/11/08 09:14:58;;;;;;;;;4.00;4.00;;;;;14.73;62.75;100584.78;3013489;22;46960;-88
2022/11/08 09:16:09;;;;;;;;;2.25;2.25;;;;;14.80;62.62;100585.31;3029120;22;45330;-88
2022/11/08 09:17:19;;;;;;;;;2.25;2.25;;;;;14.84;62.75;100578.09;3026115;22;47938;-88
2022/11/08 09:18:30;;;;;;;;;3.00;3.00;;;;;14.89;62.54;100575.22;3016061;22;45276;-89
2022/11/08 09:19:41;;;;;;;;;4.25;3.50;;;;;14.92;62.73;100573.25;3031083;22;47087;-88
2022/11/08 09:20:55;;;;;;;;;3.00;3.00;;;;;14.97;62.45;100583.56;3021077;22;45246;-89
2022/11/08 09:22:05;;;;;;;;;4.00;2.50;;;;;15.02;62.56;100584.19;2966991;23;46259;-88
2022/11/08 09:23:16;;;;;;;;;3.00;1.75;;;;;15.04;62.31;100579.66;3025938;22;45630;-89
2022/11/08 09:24:26;;;;;;;;;2.50;2.00;;;;;15.07;62.30;100576.84;3009039;22;46167;-88
2022/11/08 09:25:37;;;;;;;;;2.75;1.75;;;;;15.13;62.29;100582.75;2966930;23;45253;-89
2022/11/08 09:26:47;;;;;;;;;3.25;3.25;;;;;15.15;62.39;100581.72;2967206;22;45219;-91
2022/11/08 09:27:57;;;;;;;;;0.25;0.25;;;;;15.22;62.24;100589.31;2967021;23;45128;-89
2022/11/08 09:29:07;;;;;;;;;2.00;2.00;;;;;15.25;60.78;100589.16;2965670;23;45196;-90
2022/11/08 09:30:18;;;;;;;;;3.25;2.00;;;;;15.29;61.91;100586.25;2967220;23;45224;-89
2022/11/08 09:31:28;;;;;;;;;2.25;2.25;;;;;15.32;59.92;100590.53;3025380;22;47103;-88
2022/11/08 09:32:38;;;;;;;;;3.50;2.00;;;;;15.36;61.68;100592.06;3025907;22;45207;-88
2022/11/08 09:33:50;;;;;;;;;3.00;2.00;;;;;15.41;60.91;100594.44;3011097;22;46362;-90
2022/11/08 09:35:00;;;;;;;;;6.00;2.00;;;;;15.47;61.64;100594.13;3026617;22;45293;-87
2022/11/08 09:36:12;;;;;;;;;2.50;2.50;;;;;15.52;61.26;100594.72;3007901;22;51753;-89
2022/11/08 09:37:23;;;;;;;;;2.00;2.00;;;;;15.58;61.77;100603.25;2964207;23;44733;-88
2022/11/08 09:38:34;;;;;;;;;2.50;2.25;;;;;15.62;61.79;100592.41;2964206;23;45752;-87
2022/11/08 09:39:44;;;;;;;;;3.00;3.00;;;;;15.68;61.63;100596.47;3025264;22;45350;-88
2022/11/08 09:41:04;;;;;;;;;5.00;2.50;;;;;15.72;61.10;100582.13;3029312;22;47059;-87
2022/11/08 09:42:33;;;;;;;;;2.25;2.00;;;;;15.78;61.08;100582.72;3011256;22;45285;-87
2022/11/08 09:44:38;;;;;;;;;2.50;2.00;;;;;15.86;61.56;100593.72;3025284;22;46864;-88
2022/11/08 09:45:51;;;;;;;;;2.75;2.75;;;;;15.90;61.76;100586.44;2999576;22;45424;-88
2022/11/08 09:47:09;;;;;;;;;2.00;2.00;;;;;15.93;61.49;100592.41;3008088;22;46252;-88
2022/11/08 09:48:40;;;;;;;;;2.00;2.00;;;;;16.01;61.87;100593.75;3026454;22;45375;-88
2022/11/08 09:49:58;;;;;;;;;4.50;4.00;;;;;16.05;61.57;100592.69;2993630;22;46576;-89
2022/11/08 09:51:12;;;;;;;;;3.00;3.00;;;;;16.10;60.97;100589.75;2966075;23;45298;-88
2022/11/08 09:52:26;;;;;;;;;2.00;2.00;;;;;16.12;60.87;100587.88;2966130;23;45472;-88
2022/11/08 09:53:48;;;;;;;;;3.25;2.00;;;;;16.15;61.24;100585.88;2965562;23;44609;-88
2022/11/08 09:55:37;;;;;;;;;2.25;2.25;;;;;16.19;60.19;100590.06;2965258;23;45341;-89
2022/11/08 09:56:49;;;;;;;;;2.75;2.00;;;;;16.19;60.43;100590.06;2966748;23;45162;-88
2022/11/08 09:58:26;;;;;;;;;2.75;2.75;;;;;16.20;60.41;100581.16;3025210;22;46842;-89
2022/11/08 09:59:46;;;;;;;;;3.00;3.00;;;;;16.18;59.50;100580.41;3020504;22;44648;-89
2022/11/08 10:00:58;;;;;;;;;3.50;3.00;;;;;16.20;60.30;100583.81;3001068;22;45346;-88
2022/11/08 10:02:18;;;;;;;;;2.00;2.00;;;;;16.22;60.50;100589.03;3026485;22;45286;-88
2022/11/08 10:03:28;;;;;;;;;4.00;2.00;;;;;16.24;60.78;100588.94;3002679;22;45357;-88
2022/11/08 10:04:39;;;;;;;;;3.00;2.00;;;;;16.28;60.67;100590.44;2966410;23;45243;-88
2022/11/08 10:06:08;;;;;;;;;2.00;2.00;;;;;16.32;60.77;100586.69;2964470;22;45618;-89
2022/11/08 10:07:27;;;;;;;;;3.50;3.50;;;;;16.36;60.56;100582.03;2967017;23;45207;-89
2022/11/08 10:08:47;;;;;;;;;4.00;4.00;;;;;16.39;60.53;100579.22;3025233;22;48177;-90
2022/11/08 10:10:26;;;;;;;;;2.00;2.00;;;;;16.42;60.00;100577.22;3002594;22;45282;-89
2022/11/08 10:11:42;;;;;;;;;3.00;3.00;;;;;16.46;60.55;100580.53;3024914;22;46954;-88
2022/11/08 10:13:11;;;;;;;;;1.75;1.75;;;;;16.49;60.02;100574.19;3015931;22;44683;-89
2022/11/08 10:14:21;;;;;;;;;2.50;2.00;;;;;16.51;60.50;100589.09;2993728;22;46439;-88
2022/11/08 10:15:45;;;;;;;;;3.00;3.00;;;;;16.52;60.08;100574.84;3026058;22;45241;-88
2022/11/08 10:17:04;;;;;;;;;3.50;2.00;;;;;16.54;60.62;100590.69;3032631;22;47006;-87
2022/11/08 10:18:33;;;;;;;;;2.00;2.00;;;;;16.53;60.48;100594.28;3011620;22;44857;-89
2022/11/08 10:19:54;;;;;;;;;5.00;3.00;;;;;16.52;60.38;100577.50;2966143;23;45309;-89
2022/11/08 10:21:29;;;;;;;;;5.00;3.50;;;;;16.54;60.27;100569.47;2965248;23;45258;-87
2022/11/08 10:22:44;;;;;;;;;2.75;1.50;;;;;16.54;60.59;100585.38;2966225;23;46127;-88
2022/11/08 10:24:01;;;;;;;;;3.00;2.00;;;;;16.51;59.98;100591.72;3027222;22;44590;-89
2022/11/08 10:25:18;;;;;;;;;2.00;2.00;;;;;16.50;60.58;100587.38;3014867;22;47503;-88
2022/11/08 10:26:41;;;;;;;;;4.00;2.00;;;;;16.48;60.43;100588.41;3023848;22;44659;-87
2022/11/08 10:27:58;;;;;;;;;2.50;2.50;;;;;16.47;60.87;100582.22;2998434;22;45613;-86
2022/11/08 10:29:19;;;;;;;;;2.00;2.00;;;;;16.50;60.22;100582.06;3025845;22;45373;-87
2022/11/08 10:30:37;;;;;;;;;2.00;2.00;;;;;16.50;60.57;100586.50;2998727;22;46144;-89
2022/11/08 10:31:56;;;;;;;;;2.75;2.00;;;;;16.54;60.29;100582.75;2966484;22;44863;-88
2022/11/08 10:33:28;;;;;;;;;3.50;2.00;;;;;16.56;60.85;100590.59;3026185;22;48079;-87
2022/11/08 10:34:45;;;;;;;;;2.50;2.50;;;;;16.59;61.34;100588.63;3025553;22;45312;-88
2022/11/08 10:35:58;;;;;;;;;1.25;1.25;;;;;16.61;61.27;100577.91;3004254;22;46477;-88
2022/11/08 10:37:12;;;;;;;;;1.00;1.00;;;;;16.65;60.73;100576.75;2966605;23;45235;-87
2022/11/08 10:38:30;;;;;;;;;3.00;2.75;;;;;16.68;61.12;100578.38;2965615;23;45639;-88
2022/11/08 10:40:00;;;;;;;;;2.25;2.00;;;;;16.70;60.36;100576.47;3026435;22;45799;-89
2022/11/08 10:41:24;;;;;;;;;1.25;1.00;;;;;16.70;60.96;100581.78;2990834;22;45279;-89
2022/11/08 10:42:57;;;;;;;;;3.25;2.25;;;;;16.71;60.71;100572.88;3025668;22;45263;-88
2022/11/08 10:44:14;;;;;;;;;3.50;2.00;;;;;16.73;61.17;100582.47;2991883;22;46276;-86
2022/11/08 10:45:25;;;;;;;;;3.50;2.75;;;;;16.75;60.66;100579.69;2964864;23;45248;-88
2022/11/08 10:46:49;;;;;;;;;3.75;1.75;;;;;16.80;61.17;100577.59;2966449;23;46107;-88
2022/11/08 10:48:00;;;;;;;;;2.00;2.00;;;;;16.84;60.80;100578.28;3041279;22;44947;-88
2022/11/08 10:49:13;;;;;;;;;3.00;2.75;;;;;16.89;60.96;100570.03;3025612;22;48253;-87
2022/11/08 10:50:42;;;;;;;;;2.25;2.00;;;;;16.91;60.51;100570.78;3008406;22;45338;-87
2022/11/08 10:51:55;;;;;;;;;2.00;2.00;;;;;16.95;60.61;100574.94;2966578;22;46190;-89
2022/11/08 10:53:16;;;;;;;;;2.00;2.00;;;;;16.94;60.37;100568.78;3025887;22;45354;-89
2022/11/08 10:54:44;;;;;;;;;3.00;2.50;;;;;16.98;60.74;100575.63;3018346;22;47024;-88
2022/11/08 10:56:04;;;;;;;;;1.00;1.00;;;;;16.98;60.47;100575.63;2994389;22;45232;-90
2022/11/08 10:57:22;;;;;;;;;1.00;1.00;;;;;17.01;59.55;100571.06;2966140;23;46581;-87
2022/11/08 10:58:41;;;;;;;;;4.00;1.00;;;;;17.01;60.29;100566.59;3026427;22;45266;-89
2022/11/08 10:59:52;;;;;;;;;2.00;2.00;;;;;17.01;60.05;100563.97;3024513;22;47190;-88
2022/11/08 11:01:04;;;;;;;;;2.00;2.00;;;;;16.99;60.40;100561.38;3027572;22;45388;-88
2022/11/08 11:02:31;;;;;;;;;1.00;1.00;;;;;16.98;59.96;100553.53;3031413;22;47046;-89
2022/11/08 11:03:42;;;;;;;;;2.00;2.00;;;;;17.03;60.45;100561.19;3025068;22;45484;-89
2022/11/08 11:05:13;;;;;;;;;2.00;2.00;;;;;17.01;60.50;100550.69;3015071;22;47000;-89
2022/11/08 11:06:31;;;;;;;;;2.00;2.00;;;;;17.04;60.63;100558.44;2992167;22;45498;-89
2022/11/08 11:07:45;;;;;;;;;2.00;2.00;;;;;17.09;60.16;100558.13;3027221;22;48177;-90
2022/11/08 11:09:02;;;;;;;;;3.00;3.00;;;;;17.10;60.55;100551.88;3007550;22;44584;-89
2022/11/08 11:10:27;;;;;;;;;5.00;2.00;;;;;17.13;60.66;100545.53;2967015;23;45533;-88
2022/11/08 11:11:38;;;;;;;;;3.00;3.00;;;;;17.16;60.48;100545.38;2967002;23;44605;-89
2022/11/08 11:12:56;;;;;;;;;2.00;2.00;;;;;17.19;60.42;100555.78;2967230;23;45253;-90
2022/11/08 11:14:14;;;;;;;;;1.75;1.75;;;;;17.25;60.92;100549.22;3027032;22;44661;-88
2022/11/08 11:15:33;;;;;;;;;2.00;2.00;;;;;17.27;60.93;100550.84;3005078;22;45500;-89
2022/11/08 11:17:07;;;;;;;;;3.00;2.75;;;;;17.36;60.56;100540.56;2963868;22;45708;-88
2022/11/08 11:18:30;;;;;;;;;3.75;3.75;;;;;17.40;60.83;100547.38;2966330;23;46243;-88
2022/11/08 11:19:50;;;;;;;;;2.25;2.25;;;;;17.44;61.03;100548.88;2965586;23;44747;-88
2022/11/08 11:21:15;;;;;;;;;3.00;1.75;;;;;17.51;60.77;100568.78;2967120;23;46395;-88
2022/11/08 11:22:33;;;;;;;;;1.00;1.00;;;;;17.59;60.16;100559.44;2967437;23;45229;-89
2022/11/08 11:24:09;;;;;;;;;5.50;3.00;;;;;17.61;60.58;100549.56;2966924;23;45502;-89
2022/11/08 11:25:22;;;;;;;;;3.75;3.00;;;;;17.64;59.39;100558.19;2967617;23;45243;-89
2022/11/08 11:26:37;;;;;;;;;1.00;1.00;;;;;17.65;59.91;100557.25;3026186;22;47488;-90
2022/11/08 11:27:53;;;;;;;;;1.00;1.00;;;;;17.70;59.86;100553.44;3005922;22;45267;-90
2022/11/08 11:29:03;;;;;;;;;1.75;1.75;;;;;17.72;60.09;100551.53;3025717;22;47229;-89
2022/11/08 11:30:34;;;;;;;;;1.50;1.50;;;;;17.78;59.96;100535.16;3015335;22;45652;-89
2022/11/08 11:31:47;;;;;;;;;2.00;2.00;;;;;17.80;59.46;100541.25;2995289;22;45494;-91
2022/11/08 11:32:57;;;;;;;;;3.75;2.25;;;;;17.83;59.92;100540.19;3027263;22;44662;-92
2022/11/08 11:34:16;;;;;;;;;3.00;2.25;;;;;17.85;59.20;100552.38;3027962;22;47816;-90
2022/11/08 11:35:47;;;;;;;;;3.00;1.00;;;;;17.87;59.69;100550.50;3027543;22;45293;-88
2022/11/08 11:37:09;;;;;;;;;2.00;2.00;;;;;17.88;59.82;100562.81;2991920;22;46442;-90
2022/11/08 11:38:51;;;;;;;;;2.00;2.00;;;;;17.92;59.50;100558.16;2967583;23;45395;-88
2022/11/08 11:40:13;;;;;;;;;2.00;2.00;;;;;17.93;60.13;100549.22;2966148;23;45352;-90
2022/11/08 11:41:30;;;;;;;;;2.00;2.00;;;;;17.94;59.68;100561.56;3026639;22;45239;-90
2022/11/08 11:42:53;;;;;;;;;2.25;2.25;;;;;17.95;59.31;100573.91;3017383;22;47134;-87
2022/11/08 11:44:27;;;;;;;;;4.50;3.00;;;;;17.93;59.55;100562.50;3018992;22;45352;-89
2022/11/08 11:45:43;;;;;;;;;1.25;1.25;;;;;17.93;59.37;100553.69;3027074;22;46146;-88
2022/11/08 11:47:01;;;;;;;;;2.00;2.00;;;;;17.92;59.18;100546.69;3006130;22;44756;-88
2022/11/08 11:48:23;;;;;;;;;2.25;2.25;;;;;17.90;59.28;100538.81;2966875;23;45396;-89
2022/11/08 11:49:34;;;;;;;;;2.00;1.00;;;;;17.86;59.80;100554.09;3042381;22;45742;-90
2022/11/08 11:50:47;;;;;;;;;1.75;1.75;;;;;17.86;59.45;100553.25;3019947;22;46355;-87
2022/11/08 11:51:57;;;;;;;;;1.00;1.00;;;;;17.84;59.65;100560.47;2966510;23;45284;-88
2022/11/08 11:53:35;;;;;;;;;3.50;2.00;;;;;17.83;60.05;100550.81;3026271;22;47092;-88
2022/11/08 11:54:48;;;;;;;;;3.00;3.00;;;;;17.81;60.11;100539.41;2983323;22;45460;-89
2022/11/08 11:56:16;;;;;;;;;3.25;2.00;;;;;17.82;59.97;100546.44;2966786;23;45412;-89
2022/11/08 11:57:47;;;;;;;;;1.75;1.50;;;;;17.78;60.11;100556.41;2967545;23;45204;-89
2022/11/08 11:59:30;;;;;;;;;2.50;2.50;;;;;17.77;60.21;100552.94;2967284;23;46200;-88
2022/11/08 12:00:49;;;;;;;;;4.25;3.25;;;;;17.78;60.69;100553.75;2967424;23;45336;-89
2022/11/08 12:02:19;;;;;;;;;3.00;3.00;;;;;17.79;60.45;100546.63;3026540;22;46989;-89
2022/11/08 12:03:32;;;;;;;;;5.50;2.00;;;;;17.80;60.69;100543.03;2994659;22;44588;-89
2022/11/08 12:05:27;;;;;;;;;3.00;3.00;;;;;17.79;60.18;100536.00;3027087;22;47266;-90
2022/11/08 12:06:56;;;;;;;;;2.00;2.00;;;;;17.77;60.11;100521.03;3009660;22;44681;-89
2022/11/08 12:08:34;;;;;;;;;3.00;3.00;;;;;17.78;60.73;100529.84;2996483;22;47313;-90
2022/11/08 12:10:06;;;;;;;;;2.00;2.00;;;;;17.77;60.30;100531.66;2987543;22;44719;-88
2022/11/08 12:11:28;;;;;;;;;2.75;2.25;;;;;17.79;60.01;100528.03;2967034;23;45234;-88
2022/11/08 12:13:05;;;;;;;;;2.00;2.00;;;;;17.79;60.36;100528.03;3027022;22;45260;-90
2022/11/08 12:14:31;;;;;;;;;3.00;2.25;;;;;17.79;60.33;100525.38;2987128;22;46369;-89
2022/11/08 12:15:54;;;;;;;;;4.75;4.00;;;;;17.79;60.54;100525.38;3026981;22;45271;-88
2022/11/08 12:17:24;;;;;;;;;1.00;1.00;;;;;17.80;59.75;100524.44;3018775;22;48073;-89
2022/11/08 12:18:49;;;;;;;;;2.50;2.50;;;;;17.81;60.36;100518.16;2994023;22;45214;-88
2022/11/08 12:20:05;;;;;;;;;1.00;1.00;;;;;17.81;60.59;100519.00;2967345;23;45251;-89
2022/11/08 12:21:55;;;;;;;;;2.75;0.75;;;;;17.82;60.15;100520.72;2966749;23;44578;-89
2022/11/08 12:23:24;;;;;;;;;1.00;1.00;;;;;17.85;60.03;100517.84;3026153;22;48254;-89
2022/11/08 12:24:53;;;;;;;;;1.00;1.00;;;;;17.86;60.20;100516.03;3020383;22;45335;-90
2022/11/08 12:26:06;;;;;;;;;4.25;4.25;;;;;17.90;60.47;100527.31;3026661;22;47311;-88
2022/11/08 12:27:43;;;;;;;;;3.00;1.25;;;;;17.90;59.76;100522.88;3008761;22;45120;-90
2022/11/08 12:29:02;;;;;;;;;2.75;2.75;;;;;17.92;60.39;100520.09;3027065;22;48327;-89
2022/11/08 12:30:24;;;;;;;;;2.25;1.00;;;;;17.95;60.48;100519.88;3003868;22;44687;-89
2022/11/08 12:31:49;;;;;;;;;3.25;1.25;;;;;17.97;60.18;100516.19;3026357;22;46987;-89
2022/11/08 12:33:17;;;;;;;;;3.00;2.50;;;;;18.02;60.45;100515.00;3027512;22;44570;-89
2022/11/08 12:34:48;;;;;;;;;1.00;1.00;;;;;18.04;59.46;100510.41;2996162;22;45674;-89
2022/11/08 12:36:22;;;;;;;;;4.00;2.00;;;;;18.09;60.55;100500.31;3025858;22;44724;-88
2022/11/08 12:37:45;;;;;;;;;3.00;3.00;;;;;18.11;60.50;100498.41;2989799;22;45503;-89
2022/11/08 12:39:12;;;;;;;;;2.25;2.25;;;;;18.13;60.25;100504.47;2968390;23;45176;-90
2022/11/08 12:40:41;;;;;;;;;2.00;1.00;;;;;18.16;59.64;100514.91;3027711;22;47120;-89
2022/11/08 12:41:58;;;;;;;;;1.00;1.00;;;;;18.19;59.36;100513.84;3020656;22;45184;-88
2022/11/08 12:43:16;;;;;;;;;1.00;1.00;;;;;18.20;59.49;100504.91;3005499;22;46251;-87
2022/11/08 12:45:02;;;;;;;;;2.75;2.75;;;;;18.23;59.86;100507.38;3027701;22;44586;-87
2022/11/08 12:46:19;;;;;;;;;4.50;4.50;;;;;18.20;59.49;100500.44;3035515;22;46984;-87
2022/11/08 12:47:29;;;;;;;;;2.00;2.00;;;;;18.24;59.82;100505.56;3015064;22;45251;-90
2022/11/08 12:48:51;;;;;;;;;2.75;2.75;;;;;18.25;59.49;100507.28;2967018;23;45303;-89
2022/11/08 12:50:22;;;;;;;;;4.00;3.25;;;;;18.24;59.62;100505.56;3027080;22;45338;-90
2022/11/08 12:51:53;;;;;;;;;1.00;1.00;;;;;18.26;60.00;100514.28;3020581;22;46991;-89
2022/11/08 12:53:23;;;;;;;;;2.75;1.75;;;;;18.27;60.25;100513.34;2994412;22;45294;-90
2022/11/08 12:54:52;;;;;;;;;3.00;3.00;;;;;18.26;60.24;100504.50;3027460;22;46938;-89
2022/11/08 12:56:09;;;;;;;;;5.75;3.00;;;;;18.25;60.51;100499.31;2996193;22;45216;-89
2022/11/08 12:57:26;;;;;;;;;3.00;3.00;;;;;18.26;60.16;100501.00;2967461;22;45372;-89
2022/11/08 12:58:48;;;;;;;;;1.00;1.00;;;;;18.27;59.45;100489.41;3024884;22;45371;-90
2022/11/08 12:59:59;;;;;;;;;3.75;3.00;;;;;18.28;59.69;100493.75;2999259;22;45622;-87
2022/11/08 13:01:18;;;;;;;;;3.00;2.50;;;;;18.27;59.83;100505.38;2967849;23;45215;-90
2022/11/08 13:02:37;;;;;;;;;3.75;3.75;;;;;18.27;60.06;100498.22;3024650;22;46235;-90
2022/11/08 13:03:50;;;;;;;;;3.50;3.50;;;;;18.29;60.20;100488.34;2999479;22;45657;-90